createdAt,value
2018-09-27T00:00:40.444Z,0
2018-09-27T00:01:50.312Z,0
2018-09-27T00:03:00.461Z,0
2018-09-27T00:04:12.345Z,0
2018-09-27T00:05:22.519Z,0
2018-09-27T00:06:32.380Z,0
2018-09-27T00:07:42.508Z,0
2018-09-27T00:08:52.354Z,0
2018-09-27T00:10:02.487Z,0
2018-09-27T00:11:12.342Z,0
2018-09-27T00:12:22.492Z,0
2018-09-27T00:13:32.651Z,0
2018-09-27T00:14:42.527Z,0
2018-09-27T00:15:52.688Z,0
2018-09-27T00:17:02.881Z,0
2018-09-27T00:18:13.013Z,0
2018-09-27T00:19:23.174Z,0
2018-09-27T00:20:33.416Z,0
2018-09-27T00:21:43.552Z,0
2018-09-27T00:22:53.733Z,0
2018-09-27T00:24:03.619Z,0
2018-09-27T00:25:13.474Z,0
2018-09-27T00:26:23.373Z,0
2018-09-27T00:27:33.494Z,0
2018-09-27T00:28:43.370Z,0
2018-09-27T00:29:53.505Z,0
2018-09-27T00:31:03.378Z,0
2018-09-27T00:32:13.537Z,0
2018-09-27T00:33:23.372Z,0
2018-09-27T00:34:33.562Z,0
2018-09-27T00:35:43.434Z,0
2018-09-27T00:36:53.555Z,0
2018-09-27T00:38:05.446Z,0
2018-09-27T00:39:15.154Z,0
2018-09-27T00:40:24.727Z,0
2018-09-27T00:41:34.861Z,0
2018-09-27T00:42:44.744Z,0
2018-09-27T00:43:54.870Z,0
2018-09-27T00:45:06.215Z,0
2018-09-27T00:46:16.366Z,0
2018-09-27T00:47:26.500Z,0
2018-09-27T00:48:36.620Z,0
2018-09-27T00:49:46.774Z,0
2018-09-27T00:50:56.928Z,0
2018-09-27T00:52:07.061Z,0
2018-09-27T00:53:17.209Z,0
2018-09-27T00:54:27.332Z,0
2018-09-27T00:55:37.206Z,0
2018-09-27T00:56:47.052Z,0
2018-09-27T00:57:57.230Z,0
2018-09-27T00:59:07.092Z,0
2018-09-27T01:00:17.229Z,0
2018-09-27T01:01:27.126Z,0
2018-09-27T01:02:37.282Z,0
2018-09-27T01:03:47.159Z,0
2018-09-27T01:04:57.297Z,0
2018-09-27T01:06:07.539Z,0
2018-09-27T01:07:17.399Z,0
2018-09-27T01:08:27.549Z,0
2018-09-27T01:09:37.745Z,0
2018-09-27T01:10:47.880Z,0
2018-09-27T01:11:57.748Z,0
2018-09-27T01:13:07.611Z,0
2018-09-27T01:14:17.518Z,0
2018-09-27T01:15:27.700Z,0
2018-09-27T01:16:37.841Z,0
2018-09-27T01:17:47.713Z,0
2018-09-27T01:18:57.576Z,0
2018-09-27T01:20:07.303Z,0
2018-09-27T01:21:17.448Z,0
2018-09-27T01:22:27.320Z,0
2018-09-27T01:23:37.203Z,0
2018-09-27T01:24:47.357Z,0
2018-09-27T01:25:57.491Z,0
2018-09-27T01:27:07.643Z,0
2018-09-27T01:28:17.832Z,0
2018-09-27T01:29:28.021Z,0
2018-09-27T01:30:37.857Z,0
2018-09-27T01:31:47.998Z,0
2018-09-27T01:32:58.137Z,0
2018-09-27T01:34:08.630Z,0
2018-09-27T01:35:18.766Z,0
2018-09-27T01:36:28.643Z,0
2018-09-27T01:37:38.793Z,0
2018-09-27T01:38:48.918Z,0
2018-09-27T01:39:58.735Z,0
2018-09-27T01:41:08.616Z,0
2018-09-27T01:42:18.501Z,0
2018-09-27T01:43:28.650Z,0
2018-09-27T01:44:38.905Z,0
2018-09-27T01:45:49.048Z,0
2018-09-27T01:46:59.050Z,0
2018-09-27T01:48:09.250Z,0
2018-09-27T01:49:19.398Z,0
2018-09-27T01:50:29.553Z,0
2018-09-27T01:51:39.706Z,0
2018-09-27T01:52:49.855Z,0
2018-09-27T01:53:59.996Z,0
2018-09-27T01:55:10.117Z,0
2018-09-27T01:56:20.294Z,0
2018-09-27T01:57:30.437Z,0
2018-09-27T01:58:40.631Z,0
2018-09-27T01:59:50.872Z,0
2018-09-27T02:01:00.791Z,0
2018-09-27T02:02:10.732Z,0
2018-09-27T02:03:20.888Z,0
2018-09-27T02:04:31.028Z,0
2018-09-27T02:05:41.168Z,0
2018-09-27T02:06:51.332Z,0
2018-09-27T02:08:01.568Z,0
2018-09-27T02:09:12.551Z,0
2018-09-27T02:10:22.697Z,0
2018-09-27T02:11:32.836Z,0
2018-09-27T02:12:43.031Z,0
2018-09-27T02:13:53.226Z,0
2018-09-27T02:15:03.780Z,0
2018-09-27T02:16:13.903Z,0
2018-09-27T02:17:23.775Z,0
2018-09-27T02:18:33.632Z,0
2018-09-27T02:19:43.550Z,0
2018-09-27T02:20:53.408Z,0
2018-09-27T02:22:03.282Z,0
2018-09-27T02:23:13.424Z,0
2018-09-27T02:24:23.311Z,0
2018-09-27T02:25:33.457Z,0
2018-09-27T02:26:43.581Z,0
2018-09-27T02:27:53.467Z,0
2018-09-27T02:29:04.158Z,0
2018-09-27T02:30:14.310Z,0
2018-09-27T02:31:24.471Z,0
2018-09-27T02:32:34.617Z,0
2018-09-27T02:33:44.777Z,0
2018-09-27T02:34:54.924Z,0
2018-09-27T02:36:05.112Z,0
2018-09-27T02:37:15.336Z,0
2018-09-27T02:38:25.487Z,0
2018-09-27T02:39:35.633Z,0
2018-09-27T02:40:45.561Z,0
2018-09-27T02:41:55.440Z,0
2018-09-27T02:43:05.630Z,0
2018-09-27T02:44:15.480Z,0
2018-09-27T02:45:25.618Z,0
2018-09-27T02:46:35.493Z,0
2018-09-27T02:47:45.632Z,0
2018-09-27T02:48:55.883Z,0
2018-09-27T02:50:05.755Z,0
2018-09-27T02:51:15.630Z,0
2018-09-27T02:52:25.777Z,0
2018-09-27T02:53:35.718Z,0
2018-09-27T02:54:45.933Z,0
2018-09-27T02:55:55.562Z,0
2018-09-27T02:57:05.805Z,0
2018-09-27T02:58:15.644Z,0
2018-09-27T02:59:25.795Z,0
2018-09-27T03:00:35.986Z,0
2018-09-27T03:01:46.130Z,0
2018-09-27T03:36:34.696Z,0
2018-09-27T03:37:44.780Z,0
2018-09-27T03:38:54.585Z,0
2018-09-27T03:40:05.044Z,0
2018-09-27T03:41:14.684Z,0
2018-09-27T03:42:24.833Z,0
2018-09-27T03:43:34.917Z,0
2018-09-27T03:44:44.980Z,0
2018-09-27T03:45:55.050Z,0
2018-09-27T03:47:07.534Z,0
2018-09-27T03:48:17.593Z,0
2018-09-27T03:49:27.728Z,0
2018-09-27T03:50:37.809Z,0
2018-09-27T03:51:47.901Z,0
2018-09-27T03:52:57.726Z,0
2018-09-27T03:54:07.844Z,0
2018-09-27T03:55:17.923Z,0
2018-09-27T03:56:27.979Z,0
2018-09-27T03:57:38.048Z,0
2018-09-27T03:58:48.111Z,0
2018-09-27T03:59:58.207Z,0
2018-09-27T04:01:09.030Z,0
2018-09-27T04:02:19.096Z,0
2018-09-27T04:03:29.684Z,0
2018-09-27T04:04:39.490Z,0
2018-09-27T04:05:49.305Z,0
2018-09-27T04:06:59.119Z,0
2018-09-27T04:08:09.184Z,0
2018-09-27T04:09:19.003Z,0
2018-09-27T04:10:28.825Z,0
2018-09-27T04:11:38.902Z,0
2018-09-27T04:12:49.408Z,0
2018-09-27T04:13:59.493Z,0
2018-09-27T04:15:09.575Z,0
2018-09-27T04:16:19.626Z,0
2018-09-27T04:17:29.443Z,0
2018-09-27T04:18:39.004Z,0
2018-09-27T04:19:49.067Z,0
2018-09-27T04:20:59.159Z,0
2018-09-27T04:22:09.251Z,0
2018-09-27T04:23:19.327Z,0
2018-09-27T04:24:29.491Z,0
2018-09-27T04:25:39.569Z,0
2018-09-27T04:26:49.370Z,0
2018-09-27T04:27:59.575Z,0
2018-09-27T04:29:09.776Z,0
2018-09-27T04:30:19.842Z,0
2018-09-27T04:31:29.924Z,0
2018-09-27T04:32:40.005Z,0
2018-09-27T04:33:50.641Z,0
2018-09-27T04:35:00.778Z,0
2018-09-27T04:36:10.868Z,0
2018-09-27T04:37:20.413Z,0
2018-09-27T04:38:30.477Z,0
2018-09-27T04:39:40.636Z,0
2018-09-27T04:40:50.749Z,0
2018-09-27T04:42:01.279Z,0
2018-09-27T04:43:11.078Z,0
2018-09-27T04:44:21.149Z,0
2018-09-27T04:45:31.216Z,0
2018-09-27T04:46:41.335Z,5
2018-09-27T04:47:51.487Z,5
2018-09-27T04:49:01.290Z,5
2018-09-27T04:50:11.416Z,5
2018-09-27T04:51:21.474Z,5
2018-09-27T04:52:31.539Z,5
2018-09-27T04:53:41.342Z,10
2018-09-27T04:54:51.393Z,10
2018-09-27T04:56:01.571Z,10
2018-09-27T04:57:11.649Z,10
2018-09-27T04:58:21.716Z,10
2018-09-27T04:59:31.783Z,10
2018-09-27T05:00:41.980Z,15
2018-09-27T05:01:51.823Z,15
2018-09-27T05:03:01.381Z,15
2018-09-27T05:04:11.456Z,15
2018-09-27T05:05:21.753Z,15
2018-09-27T05:06:32.016Z,20
2018-09-27T05:07:42.201Z,20
2018-09-27T05:08:52.270Z,20
2018-09-27T05:10:03.143Z,20
2018-09-27T05:11:13.205Z,20
2018-09-27T05:12:23.278Z,25
2018-09-27T05:13:33.126Z,25
2018-09-27T05:14:43.240Z,25
2018-09-27T05:15:53.532Z,25
2018-09-27T05:17:03.600Z,30
2018-09-27T05:18:13.663Z,30
2018-09-27T05:19:23.721Z,30
2018-09-27T05:20:34.114Z,30
2018-09-27T05:21:44.394Z,30
2018-09-27T05:22:54.542Z,35
2018-09-27T05:24:04.342Z,35
2018-09-27T05:25:13.878Z,35
2018-09-27T05:26:23.680Z,35
2018-09-27T05:27:33.911Z,35
2018-09-27T05:28:44.002Z,40
2018-09-27T05:29:54.071Z,40
2018-09-27T05:31:03.933Z,40
2018-09-27T05:32:13.989Z,40
2018-09-27T05:33:23.817Z,40
2018-09-27T05:34:33.907Z,45
2018-09-27T05:35:43.955Z,45
2018-09-27T05:36:54.051Z,45
2018-09-27T05:38:04.895Z,45
2018-09-27T05:39:14.699Z,50
2018-09-27T05:40:24.247Z,50
2018-09-27T05:41:34.037Z,50
2018-09-27T05:42:43.835Z,50
2018-09-27T05:43:53.902Z,55
2018-09-27T05:45:03.717Z,55
2018-09-27T05:46:13.793Z,55
2018-09-27T05:47:23.870Z,55
2018-09-27T05:48:33.993Z,55
2018-09-27T05:49:44.072Z,55
2018-09-27T05:50:54.150Z,55
2018-09-27T05:52:03.953Z,55
2018-09-27T05:53:14.008Z,60
2018-09-27T05:54:24.121Z,60
2018-09-27T05:55:34.166Z,60
2018-09-27T05:56:44.217Z,60
2018-09-27T05:57:54.323Z,60
2018-09-27T05:59:05.540Z,60
2018-09-27T06:00:15.428Z,65
2018-09-27T06:01:25.551Z,65
2018-09-27T06:02:35.368Z,65
2018-09-27T06:03:45.965Z,65
2018-09-27T06:04:55.758Z,65
2018-09-27T06:06:05.620Z,65
2018-09-27T06:07:15.789Z,70
2018-09-27T06:08:25.585Z,70
2018-09-27T06:09:35.941Z,70
2018-09-27T06:10:46.012Z,70
2018-09-27T06:11:56.142Z,70
2018-09-27T06:13:05.953Z,70
2018-09-27T06:14:16.044Z,70
2018-09-27T06:15:26.208Z,70
2018-09-27T06:16:36.355Z,75
2018-09-27T06:17:46.430Z,75
2018-09-27T06:18:56.546Z,75
2018-09-27T06:20:06.498Z,75
2018-09-27T06:21:16.539Z,75
2018-09-27T06:22:26.628Z,75
2018-09-27T06:23:36.696Z,75
2018-09-27T06:24:46.777Z,80
2018-09-27T06:25:56.928Z,80
2018-09-27T06:27:06.990Z,80
2018-09-27T06:28:17.067Z,80
2018-09-27T06:29:27.174Z,80
2018-09-27T06:30:36.971Z,80
2018-09-27T06:31:47.056Z,80
2018-09-27T06:32:57.346Z,85
2018-09-27T06:34:07.772Z,85
2018-09-27T06:35:17.981Z,85
2018-09-27T06:36:28.046Z,85
2018-09-27T06:37:38.111Z,85
2018-09-27T06:38:48.115Z,85
2018-09-27T06:39:58.213Z,85
2018-09-27T06:41:09.319Z,90
2018-09-27T06:42:19.378Z,90
2018-09-27T06:43:29.493Z,90
2018-09-27T06:44:39.811Z,90
2018-09-27T06:45:49.955Z,90
2018-09-27T06:47:00.081Z,90
2018-09-27T06:48:12.513Z,90
2018-09-27T06:49:22.576Z,90
2018-09-27T06:50:32.767Z,95
2018-09-27T06:51:42.577Z,95
2018-09-27T06:52:52.749Z,95
2018-09-27T06:54:02.553Z,95
2018-09-27T06:55:13.539Z,95
2018-09-27T06:56:23.310Z,95
2018-09-27T06:57:33.375Z,95
2018-09-27T06:58:43.427Z,100
2018-09-27T06:59:53.487Z,100
2018-09-27T07:01:03.503Z,100
2018-09-27T07:02:13.717Z,100
2018-09-27T07:03:23.791Z,100
2018-09-27T07:04:33.688Z,100
2018-09-27T07:05:43.484Z,100
2018-09-27T07:06:52.768Z,105
2018-09-27T07:08:02.835Z,105
2018-09-27T07:09:12.377Z,105
2018-09-27T07:10:21.930Z,105
2018-09-27T07:11:31.733Z,105
2018-09-27T07:12:41.572Z,105
2018-09-27T07:13:51.645Z,105
2018-09-27T07:15:01.716Z,110
2018-09-27T07:16:11.853Z,110
2018-09-27T07:17:21.662Z,110
2018-09-27T07:18:31.765Z,110
2018-09-27T07:19:41.555Z,110
2018-09-27T07:20:52.136Z,110
2018-09-27T07:22:02.452Z,110
2018-09-27T07:23:12.538Z,115
2018-09-27T07:24:22.607Z,115
2018-09-27T07:25:32.429Z,115
2018-09-27T07:26:43.237Z,115
2018-09-27T07:27:52.708Z,115
2018-09-27T07:29:02.537Z,115
2018-09-27T07:30:12.395Z,115
2018-09-27T07:31:22.741Z,115
2018-09-27T07:32:33.111Z,115
2018-09-27T07:33:43.173Z,115
2018-09-27T07:34:53.240Z,115
2018-09-27T07:36:03.058Z,115
2018-09-27T07:37:12.609Z,115
2018-09-27T07:38:22.720Z,115
2018-09-27T07:39:32.896Z,120
2018-09-27T07:40:42.985Z,120
2018-09-27T07:41:53.055Z,120
2018-09-27T07:43:03.327Z,120
2018-09-27T07:44:13.141Z,120
2018-09-27T07:45:23.271Z,120
2018-09-27T07:46:33.089Z,125
2018-09-27T07:47:42.900Z,125
2018-09-27T07:48:52.978Z,125
2018-09-27T07:50:02.269Z,125
2018-09-27T07:51:12.372Z,125
2018-09-27T07:52:22.433Z,125
2018-09-27T07:53:32.483Z,125
2018-09-27T07:54:42.714Z,130
2018-09-27T07:55:52.810Z,130
2018-09-27T07:57:03.728Z,130
2018-09-27T07:58:13.785Z,130
2018-09-27T07:59:23.594Z,130
2018-09-27T08:00:33.729Z,135
2018-09-27T08:01:43.543Z,130
2018-09-27T08:02:53.907Z,135
2018-09-27T08:04:04.275Z,135
2018-09-27T08:05:14.347Z,135
2018-09-27T08:06:24.410Z,135
2018-09-27T08:07:34.499Z,135
2018-09-27T08:08:44.630Z,140
2018-09-27T08:09:54.753Z,135
2018-09-27T08:11:05.337Z,140
2018-09-27T08:12:15.469Z,140
2018-09-27T08:13:25.543Z,140
2018-09-27T08:14:35.537Z,140
2018-09-27T08:15:45.629Z,140
2018-09-27T08:16:55.834Z,140
2018-09-27T08:18:06.203Z,140
2018-09-27T08:19:16.264Z,145
2018-09-27T08:20:26.031Z,145
2018-09-27T08:21:36.177Z,145
2018-09-27T08:22:46.250Z,145
2018-09-27T08:23:56.390Z,145
2018-09-27T08:25:06.473Z,145
2018-09-27T08:26:16.313Z,145
2018-09-27T08:27:26.394Z,150
2018-09-27T08:28:36.503Z,150
2018-09-27T08:29:46.320Z,150
2018-09-27T08:30:57.372Z,155
2018-09-27T08:32:07.503Z,150
2018-09-27T08:33:17.060Z,155
2018-09-27T08:34:27.148Z,160
2018-09-27T08:35:37.273Z,165
2018-09-27T08:36:46.850Z,170
2018-09-27T08:37:56.961Z,175
2018-09-27T08:39:07.019Z,175
2018-09-27T08:40:17.097Z,180
2018-09-27T08:41:27.157Z,175
2018-09-27T08:42:37.230Z,165
2018-09-27T08:43:47.303Z,155
2018-09-27T08:44:58.889Z,145
2018-09-27T08:46:09.128Z,180
2018-09-27T08:47:18.987Z,150
2018-09-27T08:48:28.537Z,135
2018-09-27T08:49:38.360Z,115
2018-09-27T08:50:48.176Z,120
2018-09-27T08:51:57.727Z,105
2018-09-27T08:53:07.643Z,115
2018-09-27T08:54:16.942Z,125
2018-09-27T08:55:26.995Z,175
2018-09-27T08:56:37.430Z,140
2018-09-27T08:57:47.731Z,130
2018-09-27T08:58:57.814Z,115
2018-09-27T09:00:09.964Z,170
2018-09-27T09:01:20.037Z,170
2018-09-27T09:02:29.860Z,160
2018-09-27T09:03:40.623Z,170
2018-09-27T09:04:50.860Z,170
2018-09-27T09:06:00.954Z,165
2018-09-27T09:07:11.025Z,170
2018-09-27T09:08:21.117Z,160
2018-09-27T09:09:30.776Z,165
2018-09-27T09:10:40.613Z,165
2018-09-27T09:11:50.689Z,145
2018-09-27T09:13:01.416Z,170
2018-09-27T09:14:12.650Z,155
2018-09-27T09:15:22.492Z,115
2018-09-27T09:16:32.634Z,175
2018-09-27T09:17:42.705Z,175
2018-09-27T09:18:52.528Z,175
2018-09-27T09:20:02.353Z,175
2018-09-27T09:21:12.435Z,180
2018-09-27T09:22:22.006Z,185
2018-09-27T09:23:32.088Z,190
2018-09-27T09:24:42.703Z,190
2018-09-27T09:25:53.272Z,155
2018-09-27T09:27:03.364Z,180
2018-09-27T09:28:13.445Z,200
2018-09-27T09:29:23.498Z,210
2018-09-27T09:30:33.415Z,190
2018-09-27T09:31:43.241Z,200
2018-09-27T09:32:53.051Z,175
2018-09-27T09:34:03.197Z,150
2018-09-27T09:35:13.011Z,135
2018-09-27T09:36:22.832Z,150
2018-09-27T09:37:32.914Z,155
2018-09-27T09:38:42.985Z,125
2018-09-27T09:39:52.807Z,125
2018-09-27T09:41:02.899Z,165
2018-09-27T09:42:12.976Z,175
2018-09-27T09:43:23.063Z,185
2018-09-27T09:44:32.864Z,185
2018-09-27T09:45:42.987Z,180
2018-09-27T09:46:52.523Z,180
2018-09-27T09:48:03.902Z,175
2018-09-27T09:49:13.976Z,175
2018-09-27T09:50:23.804Z,175
2018-09-27T09:51:33.883Z,175
2018-09-27T09:52:43.960Z,175
2018-09-27T09:53:54.040Z,175
2018-09-27T09:55:03.576Z,175
2018-09-27T09:56:13.650Z,175
2018-09-27T09:57:23.457Z,175
2018-09-27T09:58:33.527Z,175
2018-09-27T09:59:43.336Z,175
2018-09-27T10:00:53.405Z,175
2018-09-27T10:02:03.471Z,175
2018-09-27T10:03:13.599Z,175
2018-09-27T10:04:23.406Z,175
2018-09-27T10:05:33.492Z,175
2018-09-27T10:06:43.288Z,175
2018-09-27T10:07:53.356Z,180
2018-09-27T10:09:04.013Z,175
2018-09-27T10:10:14.118Z,175
2018-09-27T10:11:24.200Z,175
2018-09-27T10:12:34.009Z,175
2018-09-27T10:13:44.139Z,175
2018-09-27T10:14:54.249Z,175
2018-09-27T10:16:04.329Z,175
2018-09-27T10:17:14.404Z,175
2018-09-27T10:18:24.481Z,175
2018-09-27T10:19:34.297Z,175
2018-09-27T10:20:44.408Z,175
2018-09-27T10:21:55.117Z,175
2018-09-27T10:23:04.952Z,175
2018-09-27T10:24:15.027Z,175
2018-09-27T10:25:24.590Z,175
2018-09-27T10:26:34.682Z,180
2018-09-27T10:27:44.962Z,180
2018-09-27T10:28:55.035Z,175
2018-09-27T10:30:05.129Z,175
2018-09-27T10:31:14.935Z,175
2018-09-27T10:32:25.024Z,185
2018-09-27T10:33:34.583Z,175
2018-09-27T10:34:45.215Z,180
2018-09-27T10:35:55.327Z,180
2018-09-27T10:37:05.826Z,180
2018-09-27T10:38:15.954Z,180
2018-09-27T10:39:25.757Z,180
2018-09-27T10:40:35.822Z,180
2018-09-27T10:41:45.616Z,180
2018-09-27T10:42:55.172Z,180
2018-09-27T10:44:05.306Z,180
2018-09-27T10:45:15.396Z,180
2018-09-27T10:46:25.495Z,180
2018-09-27T10:47:35.589Z,180
2018-09-27T10:48:45.663Z,180
2018-09-27T10:49:55.791Z,180
2018-09-27T10:51:06.772Z,180
2018-09-27T10:52:16.606Z,180
2018-09-27T10:53:26.716Z,180
2018-09-27T10:54:36.795Z,180
2018-09-27T10:55:46.933Z,180
2018-09-27T10:56:56.767Z,180
2018-09-27T10:58:06.853Z,180
2018-09-27T10:59:17.055Z,180
2018-09-27T11:00:27.116Z,180
2018-09-27T11:01:37.258Z,180
2018-09-27T11:02:47.324Z,180
2018-09-27T11:03:57.556Z,180
2018-09-27T11:05:07.666Z,180
2018-09-27T11:06:17.744Z,180
2018-09-27T11:07:27.864Z,180
2018-09-27T11:08:37.684Z,180
2018-09-27T11:09:47.894Z,185
2018-09-27T11:10:58.271Z,185
2018-09-27T11:12:08.111Z,185
2018-09-27T11:13:17.939Z,185
2018-09-27T11:14:28.006Z,185
2018-09-27T11:15:38.102Z,185
2018-09-27T11:16:48.720Z,185
2018-09-27T11:17:58.260Z,185
2018-09-27T11:19:08.151Z,185
2018-09-27T11:20:18.224Z,185
2018-09-27T11:21:28.298Z,185
2018-09-27T11:22:38.397Z,185
2018-09-27T11:23:48.225Z,190
2018-09-27T11:24:58.149Z,190
2018-09-27T11:26:08.228Z,190
2018-09-27T11:27:18.037Z,190
2018-09-27T11:28:28.119Z,190
2018-09-27T11:29:38.225Z,190
2018-09-27T11:30:48.385Z,190
2018-09-27T11:31:58.528Z,190
2018-09-27T11:33:09.100Z,190
2018-09-27T11:34:18.868Z,195
2018-09-27T11:35:28.692Z,195
2018-09-27T11:36:38.040Z,200
2018-09-27T11:37:47.887Z,195
2018-09-27T11:38:57.975Z,195
2018-09-27T11:40:09.994Z,195
2018-09-27T11:41:19.843Z,195
2018-09-27T11:42:30.740Z,195
2018-09-27T11:43:40.851Z,195
2018-09-27T11:44:50.926Z,200
2018-09-27T11:46:01.388Z,195
2018-09-27T11:47:11.575Z,195
2018-09-27T11:48:21.676Z,195
2018-09-27T11:49:32.635Z,195
2018-09-27T11:50:42.752Z,195
2018-09-27T11:51:52.834Z,195
2018-09-27T11:53:02.928Z,200
2018-09-27T11:54:13.067Z,195
2018-09-27T11:55:23.100Z,195
2018-09-27T11:56:33.180Z,195
2018-09-27T11:57:43.290Z,200
2018-09-27T11:58:53.466Z,200
2018-09-27T12:00:03.602Z,200
2018-09-27T12:01:13.695Z,200
2018-09-27T12:02:23.773Z,200
2018-09-27T12:03:33.866Z,200
2018-09-27T12:04:43.691Z,200
2018-09-27T12:05:53.918Z,200
2018-09-27T12:07:03.749Z,205
2018-09-27T12:08:13.842Z,190
2018-09-27T12:09:23.659Z,180
2018-09-27T12:10:33.546Z,200
2018-09-27T12:11:43.407Z,200
2018-09-27T12:12:53.488Z,200
2018-09-27T12:14:03.054Z,200
2018-09-27T12:15:12.635Z,200
2018-09-27T12:16:22.207Z,200
2018-09-27T12:17:32.223Z,200
2018-09-27T12:18:42.400Z,200
2018-09-27T12:19:52.302Z,200
2018-09-27T12:21:02.416Z,195
2018-09-27T12:22:12.522Z,195
2018-09-27T12:23:22.409Z,195
2018-09-27T12:24:32.216Z,195
2018-09-27T12:25:42.321Z,195
2018-09-27T12:26:52.481Z,195
2018-09-27T12:28:04.069Z,195
2018-09-27T12:29:13.885Z,190
2018-09-27T12:30:23.980Z,195
2018-09-27T12:31:34.072Z,190
2018-09-27T12:32:44.187Z,190
2018-09-27T12:33:54.359Z,190
2018-09-27T12:35:04.455Z,190
2018-09-27T12:36:14.534Z,190
2018-09-27T12:37:24.625Z,185
2018-09-27T12:38:34.825Z,185
2018-09-27T12:39:45.153Z,185
2018-09-27T12:40:55.501Z,185
2018-09-27T12:42:07.106Z,185
2018-09-27T12:43:17.284Z,185
2018-09-27T12:44:26.845Z,180
2018-09-27T12:45:37.311Z,180
2018-09-27T12:46:47.534Z,180
2018-09-27T12:47:57.548Z,180
2018-09-27T12:49:07.972Z,180
2018-09-27T12:50:18.149Z,180
2018-09-27T12:51:29.249Z,175
2018-09-27T12:52:40.262Z,175
2018-09-27T12:53:50.381Z,175
2018-09-27T12:55:00.328Z,175
2018-09-27T12:56:11.224Z,175
2018-09-27T12:57:21.608Z,175
2018-09-27T12:58:31.551Z,175
2018-09-27T12:59:41.660Z,175
2018-09-27T13:00:51.217Z,175
2018-09-27T13:02:02.269Z,175
2018-09-27T13:03:12.523Z,175
2018-09-27T13:04:22.335Z,175
2018-09-27T13:05:32.418Z,170
2018-09-27T13:06:42.538Z,170
2018-09-27T13:07:52.631Z,170
2018-09-27T13:09:02.863Z,175
2018-09-27T13:10:13.305Z,175
2018-09-27T13:11:23.213Z,175
2018-09-27T13:12:33.946Z,175
2018-09-27T13:13:44.512Z,170
2018-09-27T13:14:55.054Z,165
2018-09-27T13:16:05.722Z,170
2018-09-27T13:17:16.497Z,165
2018-09-27T13:18:26.679Z,165
2018-09-27T13:19:37.376Z,165
2018-09-27T13:20:47.969Z,165
2018-09-27T13:21:57.822Z,165
2018-09-27T13:23:08.364Z,165
2018-09-27T13:24:18.537Z,165
2018-09-27T13:25:28.678Z,165
2018-09-27T13:26:38.888Z,165
2018-09-27T13:27:49.029Z,165
2018-09-27T13:28:58.868Z,160
2018-09-27T13:30:09.121Z,165
2018-09-27T13:31:19.342Z,165
2018-09-27T13:32:29.424Z,165
2018-09-27T13:33:39.537Z,165
2018-09-27T13:34:49.627Z,165
2018-09-27T13:35:59.780Z,165
2018-09-27T13:37:10.402Z,165
2018-09-27T13:38:20.634Z,165
2018-09-27T13:39:30.749Z,165
2018-09-27T13:40:40.327Z,165
2018-09-27T13:41:50.171Z,165
2018-09-27T13:43:01.321Z,160
2018-09-27T13:44:11.156Z,160
2018-09-27T13:45:21.407Z,160
2018-09-27T13:46:31.788Z,160
2018-09-27T13:47:41.938Z,160
2018-09-27T13:48:51.791Z,155
2018-09-27T13:50:01.907Z,155
2018-09-27T13:51:12.360Z,155
2018-09-27T13:52:22.450Z,155
2018-09-27T13:53:32.022Z,155
2018-09-27T13:54:42.108Z,155
2018-09-27T13:55:52.253Z,150
2018-09-27T13:57:03.077Z,150
2018-09-27T13:58:12.947Z,150
2018-09-27T13:59:23.059Z,150
2018-09-27T14:00:32.606Z,150
2018-09-27T14:01:42.179Z,150
2018-09-27T14:02:52.365Z,145
2018-09-27T14:04:01.887Z,145
2018-09-27T14:05:11.976Z,145
2018-09-27T14:06:22.073Z,145
2018-09-27T14:07:31.946Z,145
2018-09-27T14:08:42.048Z,140
2018-09-27T14:09:52.129Z,145
2018-09-27T14:11:02.206Z,145
2018-09-27T14:12:12.593Z,140
2018-09-27T14:13:22.473Z,140
2018-09-27T14:14:32.701Z,140
2018-09-27T14:15:42.794Z,140
2018-09-27T14:16:52.836Z,135
2018-09-27T14:18:02.997Z,135
2018-09-27T14:19:13.149Z,135
2018-09-27T14:20:23.246Z,130
2018-09-27T14:21:32.549Z,125
2018-09-27T14:22:42.373Z,135
2018-09-27T14:23:52.473Z,130
2018-09-27T14:25:03.143Z,130
2018-09-27T14:26:12.710Z,130
2018-09-27T14:27:22.821Z,130
2018-09-27T14:28:32.911Z,130
2018-09-27T14:29:42.984Z,130
2018-09-27T14:30:53.454Z,125
2018-09-27T14:32:03.591Z,125
2018-09-27T14:33:13.430Z,125
2018-09-27T14:34:23.271Z,130
2018-09-27T14:35:33.531Z,130
2018-09-27T14:36:43.979Z,125
2018-09-27T14:37:54.125Z,125
2018-09-27T14:39:03.944Z,120
2018-09-27T14:40:13.780Z,120
2018-09-27T14:41:23.910Z,120
2018-09-27T14:42:34.151Z,120
2018-09-27T14:43:44.292Z,120
2018-09-27T14:44:54.146Z,115
2018-09-27T14:46:04.232Z,115
2018-09-27T14:47:14.359Z,120
2018-09-27T14:48:24.441Z,115
2018-09-27T14:49:34.548Z,110
2018-09-27T14:50:44.111Z,110
2018-09-27T14:51:53.935Z,110
2018-09-27T14:53:04.040Z,110
2018-09-27T14:54:14.196Z,105
2018-09-27T14:55:24.287Z,105
2018-09-27T14:56:34.122Z,105
2018-09-27T14:57:44.229Z,105
2018-09-27T14:58:54.479Z,100
2018-09-27T15:00:04.674Z,100
2018-09-27T15:01:14.785Z,100
2018-09-27T15:02:25.218Z,100
2018-09-27T15:03:35.383Z,95
2018-09-27T15:04:45.635Z,95
2018-09-27T15:05:55.835Z,95
2018-09-27T15:07:05.936Z,95
2018-09-27T15:08:16.134Z,95
2018-09-27T15:09:26.925Z,95
2018-09-27T15:10:37.815Z,95
2018-09-27T15:11:47.997Z,95
2018-09-27T15:12:57.833Z,95
2018-09-27T15:14:07.936Z,90
2018-09-27T15:15:18.026Z,90
2018-09-27T15:16:28.583Z,90
2018-09-27T15:17:38.500Z,90
2018-09-27T15:18:48.596Z,85
2018-09-27T15:19:58.678Z,85
2018-09-27T15:21:08.764Z,85
2018-09-27T15:22:18.601Z,85
2018-09-27T15:23:28.969Z,80
2018-09-27T15:24:39.093Z,80
2018-09-27T15:25:49.187Z,80
2018-09-27T15:26:59.288Z,80
2018-09-27T15:28:09.143Z,75
2018-09-27T15:29:19.248Z,75
2018-09-27T15:30:29.401Z,75
2018-09-27T15:31:39.512Z,75
2018-09-27T15:32:49.621Z,70
2018-09-27T15:33:59.731Z,70
2018-09-27T15:35:11.180Z,70
2018-09-27T15:36:21.440Z,70
2018-09-27T15:37:31.326Z,65
2018-09-27T15:38:41.418Z,65
2018-09-27T15:39:51.655Z,65
2018-09-27T15:41:02.148Z,60
2018-09-27T15:42:12.001Z,60
2018-09-27T15:43:22.087Z,60
2018-09-27T15:44:32.333Z,60
2018-09-27T15:45:42.904Z,55
2018-09-27T15:46:53.030Z,55
2018-09-27T15:48:04.351Z,55
2018-09-27T15:49:14.450Z,55
2018-09-27T15:50:24.325Z,55
2018-09-27T15:51:34.888Z,50
2018-09-27T15:52:44.977Z,50
2018-09-27T15:53:55.063Z,50
2018-09-27T15:55:05.187Z,50
2018-09-27T15:56:15.365Z,45
2018-09-27T15:57:25.460Z,45
2018-09-27T15:58:35.703Z,45
2018-09-27T15:59:45.802Z,40
2018-09-27T16:00:55.619Z,40
2018-09-27T16:02:05.697Z,40
2018-09-27T16:03:15.789Z,40
2018-09-27T16:04:25.798Z,35
2018-09-27T16:05:35.890Z,35
2018-09-27T16:06:45.769Z,35
2018-09-27T16:07:55.894Z,35
2018-09-27T16:09:06.000Z,30
2018-09-27T16:10:16.104Z,30
2018-09-27T16:11:26.210Z,30
2018-09-27T16:12:36.303Z,30
2018-09-27T16:13:46.210Z,25
2018-09-27T16:14:56.394Z,25
2018-09-27T16:16:07.900Z,25
2018-09-27T16:17:18.029Z,25
2018-09-27T16:18:28.130Z,20
2018-09-27T16:19:38.269Z,20
2018-09-27T16:20:48.365Z,20
2018-09-27T16:21:58.758Z,20
2018-09-27T16:23:08.941Z,15
2018-09-27T16:24:19.064Z,15
2018-09-27T16:25:28.950Z,15
2018-09-27T16:26:39.061Z,15
2018-09-27T16:27:49.163Z,15
2018-09-27T16:28:59.277Z,10
2018-09-27T16:30:10.606Z,10
2018-09-27T16:31:20.478Z,10
2018-09-27T16:32:30.562Z,10
2018-09-27T16:33:41.331Z,10
2018-09-27T16:34:51.175Z,5
2018-09-27T16:36:01.017Z,5
2018-09-27T16:37:10.861Z,5
2018-09-27T16:38:20.957Z,5
2018-09-27T16:39:31.030Z,5
2018-09-27T16:40:40.855Z,5
2018-09-27T16:41:51.239Z,5
2018-09-27T16:43:01.350Z,5
2018-09-27T16:44:11.452Z,0
2018-09-27T16:45:21.021Z,0
2018-09-27T16:46:31.126Z,0
2018-09-27T16:47:41.547Z,0
2018-09-27T16:48:51.803Z,0
2018-09-27T16:50:01.648Z,0
2018-09-27T16:51:11.747Z,0
2018-09-27T16:52:21.837Z,0
2018-09-27T16:53:32.099Z,0
2018-09-27T16:54:42.230Z,0
2018-09-27T16:55:52.075Z,0
2018-09-27T16:57:01.901Z,0
2018-09-27T16:58:11.751Z,0
2018-09-27T16:59:21.830Z,0
2018-09-27T17:00:31.952Z,0
2018-09-27T17:01:41.831Z,0
2018-09-27T17:02:51.984Z,0
2018-09-27T17:04:02.089Z,0
2018-09-27T17:05:11.656Z,0
2018-09-27T17:06:21.771Z,0